Portada
METAR-TAF:

METAR-TAF

Aeropuertos :

Aeropuerto Internacional de Chuuk

Weno, Micronesia

latitud: 07-28N, longitud: 151-51E, altitud: 3 m

Observación

El informe se hizo hace 35 minutos, a las 11:50 UTC
Viento 3 kt con dirección variable
Temperatura 26°C
Humedad 84%
Presión 1011 hPa
Visibilidad: 24.1 km
Escasas nubes a una altura de 1400 ft
Nubes dispersas a una altura de 29000 ft

METAR: PTKK 231150Z VRB03KT 15SM FEW014 SCT290 26/23 A2985 RMK SLP110 8/101 T02640234 10301 20262 52012

Hora: 22:25 (12:25 UTC)

Pronóstico

El informe se hizo hace 46 minutos, a las 11:39 UTC
Pronóstico válido del 23 a las 12 UTC al 24 a las 12 UTC
Viento 7 kt del este-sureste
Visibilidad: 10 km
Nubes dispersas a una altura de 1600 ft
chaparrones en las proximidades

TAF: PTKK 231139Z 2312/2412 12007KT P6SM VCSH SCT016

Observaciones y pronósticos meteorológicos de más de 4000 aeropuertos (mensajes METAR y TAF).

Los puntos amarillos y rojos representan las estaciones disponibles.

Ponga el ratón en el punto deseado para ver el nombre de la estación.

Haga clic para ver las observaciones y los pronósticos meteorológicos.

Para cambiar el mapa : haga clic en los botones verdes con una cruz de color negro para hacer un zoom, en el botón verde con un guión para alejar o en las flechas verdes para mapas adyacentes.


METAR-TAF: